createdAt,value
2018-12-06T00:00:34.004Z,9.60
2018-12-06T00:03:02.424Z,8.95
2018-12-06T00:05:30.986Z,7.65
2018-12-06T00:08:12.804Z,9.75
2018-12-06T00:10:41.251Z,8.75
2018-12-06T00:13:09.883Z,10.45
2018-12-06T00:15:38.349Z,9.63
2018-12-06T00:18:06.765Z,9.85
2018-12-06T00:20:35.287Z,9.33
2018-12-06T00:23:03.733Z,10.72
2018-12-06T00:25:32.025Z,9.08
2018-12-06T00:28:00.601Z,9.05
2018-12-06T00:30:34.987Z,8.18
2018-12-06T00:33:04.010Z,10.00
2018-12-06T00:35:33.501Z,8.80
2018-12-06T00:38:02.002Z,9.40
2018-12-06T00:40:30.638Z,11.28
2018-12-06T00:42:58.967Z,12.20
2018-12-06T00:45:27.496Z,9.98
2018-12-06T00:47:56.086Z,11.85
2018-12-06T00:50:26.449Z,8.53
2018-12-06T00:52:54.950Z,11.55
2018-12-06T00:55:23.353Z,11.28
2018-12-06T00:57:51.997Z,9.78
2018-12-06T01:00:20.595Z,8.40
2018-12-06T01:02:49.246Z,8.70
2018-12-06T01:05:17.701Z,8.50
2018-12-06T01:07:50.108Z,7.72
2018-12-06T01:10:18.617Z,8.38
2018-12-06T01:12:49.174Z,9.05
2018-12-06T01:15:16.802Z,9.35
2018-12-06T01:17:44.116Z,8.13
2018-12-06T01:20:15.484Z,6.72
2018-12-06T01:22:43.962Z,7.47
2018-12-06T01:25:13.429Z,8.45
2018-12-06T01:27:40.715Z,8.08
2018-12-06T01:30:09.357Z,7.97
2018-12-06T01:32:38.873Z,10.50
2018-12-06T01:35:07.560Z,9.90
2018-12-06T01:37:35.974Z,11.20
2018-12-06T01:40:04.637Z,8.15
2018-12-06T01:42:33.042Z,10.15
2018-12-06T01:45:02.663Z,9.13
2018-12-06T01:47:29.946Z,9.03
2018-12-06T01:49:58.231Z,7.42
2018-12-06T01:52:26.746Z,10.55
2018-12-06T01:54:55.304Z,8.35
2018-12-06T01:57:24.134Z,7.97
2018-12-06T01:59:52.562Z,9.40
2018-12-06T02:02:19.988Z,9.58
2018-12-06T02:04:48.281Z,9.03
2018-12-06T02:07:19.221Z,9.98
2018-12-06T02:09:47.540Z,8.05
2018-12-06T02:12:16.223Z,8.25
2018-12-06T02:14:44.784Z,9.43
2018-12-06T02:17:13.528Z,8.50
2018-12-06T02:19:41.943Z,9.65
2018-12-06T02:22:10.369Z,10.38
2018-12-06T02:24:38.795Z,9.88
2018-12-06T02:27:07.181Z,10.28
2018-12-06T02:29:42.860Z,9.53
2018-12-06T02:32:11.364Z,9.00
2018-12-06T02:34:39.759Z,12.20
2018-12-06T02:37:08.243Z,8.20
2018-12-06T02:39:36.694Z,11.63
2018-12-06T02:42:07.482Z,11.30
2018-12-06T02:44:36.093Z,11.10
2018-12-06T02:47:04.581Z,12.43
2018-12-06T02:49:33.075Z,12.07
2018-12-06T02:52:01.454Z,10.45
2018-12-06T02:54:29.937Z,12.43
2018-12-06T02:56:58.328Z,10.98
2018-12-06T02:59:26.717Z,13.25
2018-12-06T03:01:55.394Z,13.48
2018-12-06T03:04:27.930Z,9.95
2018-12-06T03:06:55.598Z,12.20
2018-12-06T03:09:22.873Z,9.40
2018-12-06T03:11:51.275Z,12.03
2018-12-06T03:14:19.726Z,11.22
2018-12-06T03:16:47.951Z,8.85
2018-12-06T03:19:20.454Z,12.47
2018-12-06T03:21:47.797Z,12.05
2018-12-06T03:24:16.361Z,12.45
2018-12-06T03:26:44.705Z,12.68
2018-12-06T03:29:13.075Z,10.03
2018-12-06T03:31:41.728Z,11.30
2018-12-06T03:34:12.899Z,10.85
2018-12-06T03:36:41.415Z,12.37
2018-12-06T03:39:09.887Z,11.83
2018-12-06T03:41:37.211Z,13.38
2018-12-06T03:44:05.529Z,9.95
2018-12-06T03:46:33.868Z,16.35
2018-12-06T03:49:02.514Z,13.83
2018-12-06T03:51:33.277Z,14.45
2018-12-06T03:54:01.737Z,13.13
2018-12-06T03:56:30.351Z,11.35
2018-12-06T03:58:58.582Z,14.80
2018-12-06T04:01:26.982Z,10.20
2018-12-06T04:03:55.642Z,13.88
2018-12-06T04:06:23.974Z,14.63
2018-12-06T04:08:52.485Z,12.60
2018-12-06T04:11:21.735Z,13.08
2018-12-06T04:13:49.089Z,11.20
2018-12-06T04:16:17.493Z,16.02
2018-12-06T04:18:45.797Z,12.53
2018-12-06T04:21:14.353Z,13.40
2018-12-06T04:23:42.822Z,11.68
2018-12-06T04:26:11.322Z,15.55
2018-12-06T04:28:39.738Z,11.55
2018-12-06T04:31:08.135Z,15.13
2018-12-06T04:33:41.476Z,12.37
2018-12-06T04:36:10.007Z,14.20
2018-12-06T04:38:38.593Z,13.78
2018-12-06T04:41:06.991Z,11.40
2018-12-06T04:43:35.613Z,14.05
2018-12-06T04:46:04.250Z,13.48
2018-12-06T04:48:32.687Z,13.53
2018-12-06T04:51:01.108Z,13.53
2018-12-06T04:53:29.536Z,16.10
2018-12-06T04:55:57.839Z,14.78
2018-12-06T04:58:26.297Z,15.63
2018-12-06T05:00:57.679Z,14.65
2018-12-06T05:03:26.523Z,14.20
2018-12-06T05:05:55.131Z,13.58
2018-12-06T05:10:57.874Z,13.75
2018-12-06T05:13:26.360Z,16.02
2018-12-06T05:15:54.750Z,15.05
2018-12-06T05:18:23.285Z,15.72
2018-12-06T05:20:51.570Z,13.95
2018-12-06T05:23:19.989Z,15.25
2018-12-06T05:25:48.488Z,15.95
2018-12-06T05:28:16.908Z,15.08
2018-12-06T05:30:45.327Z,16.42
2018-12-06T05:33:13.742Z,15.55
2018-12-06T05:35:42.254Z,16.12
2018-12-06T05:38:13.941Z,16.48
2018-12-06T05:40:42.369Z,15.75
2018-12-06T05:43:10.786Z,18.12
2018-12-06T05:45:39.268Z,17.60
2018-12-06T05:48:07.705Z,16.23
2018-12-06T05:50:36.162Z,17.07
2018-12-06T05:53:05.102Z,16.25
2018-12-06T05:55:33.533Z,17.07
2018-12-06T05:58:02.066Z,17.12
2018-12-06T06:00:30.699Z,18.02
2018-12-06T06:02:59.200Z,16.87
2018-12-06T06:05:28.651Z,18.50
2018-12-06T06:07:56.146Z,16.55
2018-12-06T06:10:27.897Z,17.60
2018-12-06T06:12:55.233Z,16.87
2018-12-06T06:15:29.397Z,18.82
2018-12-06T06:17:56.735Z,19.32
2018-12-06T06:20:25.639Z,16.75
2018-12-06T06:22:53.553Z,17.37
2018-12-06T06:25:20.849Z,20.12
2018-12-06T06:27:48.271Z,18.50
2018-12-06T06:30:15.859Z,17.05
2018-12-06T06:32:43.882Z,14.60
2018-12-06T06:35:12.950Z,14.40
2018-12-06T06:37:40.242Z,14.80
2018-12-06T06:40:08.809Z,16.52
2018-12-06T06:42:37.507Z,15.40
2018-12-06T06:45:06.177Z,15.32
2018-12-06T06:47:34.698Z,14.35
2018-12-06T06:50:03.893Z,15.60
2018-12-06T06:52:34.710Z,12.93
2018-12-06T06:55:03.567Z,15.85
2018-12-06T06:57:31.985Z,14.87
2018-12-06T07:00:00.372Z,12.55
2018-12-06T07:02:28.794Z,13.20
2018-12-06T07:04:57.242Z,14.50
2018-12-06T07:07:25.787Z,17.87
2018-12-06T07:09:54.293Z,12.28
2018-12-06T07:12:23.043Z,15.23
2018-12-06T07:14:51.529Z,14.33
2018-12-06T07:17:18.818Z,12.05
2018-12-06T07:19:47.334Z,12.78
2018-12-06T07:22:16.177Z,15.08
2018-12-06T07:24:44.730Z,12.45
2018-12-06T07:27:13.137Z,14.05
2018-12-06T07:29:43.657Z,11.00
2018-12-06T07:32:12.103Z,12.85
2018-12-06T07:34:40.576Z,11.38
2018-12-06T07:37:08.977Z,14.85
2018-12-06T07:39:37.374Z,11.28
2018-12-06T07:42:06.104Z,10.70
2018-12-06T07:44:34.679Z,11.48
2018-12-06T07:47:03.428Z,11.95
2018-12-06T07:49:32.201Z,13.15
2018-12-06T07:52:00.505Z,13.30
2018-12-06T07:54:29.359Z,10.50
2018-12-06T07:56:57.834Z,12.07
2018-12-06T07:59:26.266Z,11.30
2018-12-06T08:01:58.502Z,11.68
2018-12-06T08:04:26.886Z,11.10
2018-12-06T08:06:55.672Z,10.00
2018-12-06T08:09:24.158Z,12.30
2018-12-06T08:11:52.483Z,13.43
2018-12-06T08:14:20.976Z,12.47
2018-12-06T08:16:49.490Z,11.97
2018-12-06T08:19:18.150Z,13.75
2018-12-06T08:21:46.630Z,12.45
2018-12-06T08:24:15.723Z,11.60
2018-12-06T08:26:44.206Z,10.03
2018-12-06T08:29:12.846Z,13.03
2018-12-06T08:31:41.494Z,13.18
2018-12-06T08:34:10.029Z,13.30
2018-12-06T08:36:38.565Z,14.33
2018-12-06T08:39:07.085Z,16.17
2018-12-06T08:41:35.629Z,15.23
2018-12-06T08:44:06.773Z,14.00
2018-12-06T08:46:35.260Z,14.10
2018-12-06T08:49:03.823Z,15.32
2018-12-06T08:51:32.167Z,13.72
2018-12-06T08:54:00.619Z,14.03
2018-12-06T08:56:29.407Z,16.65
2018-12-06T08:58:57.950Z,18.98
2018-12-06T09:01:26.242Z,20.27
2018-12-06T09:03:54.659Z,16.65
2018-12-06T09:06:23.114Z,20.17
2018-12-06T09:08:51.653Z,19.57
2018-12-06T09:11:20.557Z,17.60
2018-12-06T09:13:47.841Z,20.15
2018-12-06T09:16:16.441Z,22.48
2018-12-06T09:18:50.950Z,27.48
2018-12-06T09:21:18.358Z,25.45
2018-12-06T09:23:46.814Z,22.50
2018-12-06T09:26:15.801Z,23.42
2018-12-06T09:28:43.072Z,23.90
2018-12-06T09:31:15.439Z,23.12
2018-12-06T09:33:55.376Z,23.57
2018-12-06T09:36:23.867Z,24.07
2018-12-06T09:38:52.429Z,25.05
2018-12-06T09:41:20.853Z,28.92
2018-12-06T09:43:49.545Z,25.97
2018-12-06T09:46:18.185Z,25.52
2018-12-06T09:48:46.500Z,25.27
2018-12-06T09:51:18.019Z,22.60
2018-12-06T09:53:46.421Z,23.12
2018-12-06T09:56:14.941Z,24.23
2018-12-06T09:58:43.349Z,25.65
2018-12-06T10:01:12.013Z,20.62
2018-12-06T10:03:47.026Z,23.92
2018-12-06T10:06:14.345Z,23.92
2018-12-06T10:08:42.757Z,23.02
2018-12-06T10:11:11.142Z,19.42
2018-12-06T10:13:39.525Z,22.30
2018-12-06T10:16:07.835Z,19.00
2018-12-06T10:18:39.453Z,22.17
2018-12-06T10:21:06.875Z,21.00
2018-12-06T10:23:35.189Z,19.52
2018-12-06T10:26:03.729Z,17.87
2018-12-06T10:28:31.138Z,17.25
2018-12-06T10:31:04.811Z,18.77
2018-12-06T10:33:32.089Z,17.77
2018-12-06T10:36:00.714Z,22.02
2018-12-06T10:38:30.623Z,18.85
2018-12-06T10:40:58.026Z,21.65
2018-12-06T10:43:28.250Z,16.77
2018-12-06T10:45:56.809Z,24.63
2018-12-06T10:48:25.222Z,24.37
2018-12-06T10:51:07.670Z,23.92
2018-12-06T10:53:36.289Z,22.70
2018-12-06T10:56:04.722Z,26.00
2018-12-06T10:58:33.154Z,26.40
2018-12-06T11:01:09.184Z,29.90
2018-12-06T11:03:47.075Z,25.23
2018-12-06T11:06:15.578Z,28.92
2018-12-06T11:08:44.158Z,27.13
2018-12-06T11:11:14.278Z,27.48
2018-12-06T11:13:44.331Z,32.48
2018-12-06T11:16:12.818Z,31.15
2018-12-06T11:18:41.226Z,29.07
2018-12-06T11:21:09.650Z,30.80
2018-12-06T11:23:43.041Z,30.23
2018-12-06T11:26:11.459Z,28.45
2018-12-06T11:28:39.962Z,33.15
2018-12-06T11:31:08.513Z,28.33
2018-12-06T11:33:37.021Z,29.67
2018-12-06T11:36:12.242Z,30.92
2018-12-06T11:38:40.779Z,27.83
2018-12-06T11:41:09.088Z,25.92
2018-12-06T11:43:37.541Z,24.40
2018-12-06T11:46:05.980Z,26.23
2018-12-06T11:48:39.986Z,22.80
2018-12-06T11:51:08.386Z,25.72
2018-12-06T11:53:36.798Z,22.37
2018-12-06T11:56:05.182Z,21.50
2018-12-06T11:58:35.353Z,20.85
2018-12-06T12:01:05.064Z,24.00
2018-12-06T12:03:33.588Z,21.97
2018-12-06T12:06:02.141Z,18.90
2018-12-06T12:08:30.462Z,18.00
2018-12-06T12:11:03.706Z,22.05
2018-12-06T12:13:32.375Z,18.82
2018-12-06T12:16:00.764Z,15.85
2018-12-06T12:18:29.178Z,19.00
2018-12-06T12:20:57.631Z,17.27
2018-12-06T12:23:27.822Z,17.37
2018-12-06T12:25:56.348Z,18.82
2018-12-06T12:28:24.761Z,20.77
2018-12-06T12:30:53.270Z,19.07
2018-12-06T12:33:21.577Z,16.40
2018-12-06T12:35:52.452Z,19.62
2018-12-06T12:38:20.880Z,24.00
2018-12-06T12:40:49.323Z,23.77
2018-12-06T12:43:17.689Z,17.53
2018-12-06T12:45:46.138Z,15.83
2018-12-06T12:48:19.758Z,17.30
2018-12-06T12:50:48.203Z,22.60
2018-12-06T12:53:16.699Z,17.87
2018-12-06T12:55:45.197Z,18.30
2018-12-06T12:58:13.618Z,15.30
2018-12-06T13:00:43.546Z,19.60
2018-12-06T13:03:11.994Z,22.10
2018-12-06T13:05:40.641Z,16.53
2018-12-06T13:08:09.173Z,16.10
2018-12-06T13:10:37.670Z,14.90
2018-12-06T13:13:10.817Z,16.27
2018-12-06T13:15:39.209Z,16.32
2018-12-06T13:18:07.609Z,17.87
2018-12-06T13:20:36.057Z,14.37
2018-12-06T13:23:05.206Z,11.85
2018-12-06T13:28:07.188Z,13.58
2018-12-06T13:30:35.737Z,18.47
2018-12-06T13:33:04.263Z,14.68
2018-12-06T13:35:32.687Z,15.13
2018-12-06T13:38:06.321Z,18.40
2018-12-06T13:40:34.633Z,10.47
2018-12-06T13:43:03.265Z,10.03
2018-12-06T13:45:31.881Z,11.10
2018-12-06T13:48:00.289Z,15.30
2018-12-06T13:50:32.662Z,10.75
2018-12-06T13:52:59.978Z,11.85
2018-12-06T13:55:27.281Z,13.30
2018-12-06T13:57:56.042Z,14.80
2018-12-06T14:00:24.821Z,21.97
2018-12-06T14:02:57.035Z,11.80
2018-12-06T14:05:25.506Z,13.20
2018-12-06T14:07:53.888Z,13.62
2018-12-06T14:10:22.506Z,11.18
2018-12-06T14:12:50.873Z,12.37
2018-12-06T14:15:24.566Z,12.47
2018-12-06T14:17:53.133Z,11.90
2018-12-06T14:20:21.555Z,12.90
2018-12-06T14:22:50.166Z,9.03
2018-12-06T14:25:18.574Z,14.60
2018-12-06T14:27:50.652Z,13.80
2018-12-06T14:30:19.237Z,14.23
2018-12-06T14:32:47.724Z,13.40
2018-12-06T14:35:16.668Z,10.95
2018-12-06T14:37:43.918Z,15.10
2018-12-06T14:40:17.681Z,9.33
2018-12-06T14:42:45.031Z,13.95
2018-12-06T14:45:13.361Z,12.15
2018-12-06T14:47:41.936Z,16.47
2018-12-06T14:50:09.433Z,16.60
2018-12-06T14:52:39.872Z,13.40
2018-12-06T14:55:08.818Z,17.80
2018-12-06T14:57:37.352Z,17.27
2018-12-06T15:00:08.169Z,13.73
2018-12-06T15:02:38.891Z,16.23
2018-12-06T15:05:09.470Z,13.50
2018-12-06T15:07:36.857Z,14.33
2018-12-06T15:10:05.388Z,18.63
2018-12-06T15:12:33.696Z,15.30
2018-12-06T15:15:08.045Z,15.07
2018-12-06T15:17:35.329Z,15.80
2018-12-06T15:20:03.925Z,20.23
2018-12-06T15:22:32.534Z,14.70
2018-12-06T15:25:01.143Z,14.50
2018-12-06T15:27:32.777Z,12.53
2018-12-06T15:30:01.170Z,16.90
2018-12-06T15:32:29.672Z,16.50
2018-12-06T15:34:58.077Z,10.75
2018-12-06T15:37:26.464Z,10.23
2018-12-06T15:40:07.147Z,14.87
2018-12-06T15:42:49.132Z,15.35
2018-12-06T15:45:16.733Z,13.83
2018-12-06T15:47:44.034Z,12.97
2018-12-06T15:50:11.467Z,13.62
2018-12-06T15:52:39.844Z,14.53
2018-12-06T15:55:08.438Z,13.23
2018-12-06T15:57:38.005Z,11.10
2018-12-06T16:00:10.141Z,11.03
2018-12-06T16:02:38.465Z,11.83
2018-12-06T16:05:07.164Z,14.38
2018-12-06T16:07:35.644Z,9.50
2018-12-06T16:10:08.153Z,12.57
2018-12-06T16:12:36.548Z,11.93
2018-12-06T16:15:06.433Z,10.13
2018-12-06T16:17:34.770Z,8.50
2018-12-06T16:20:09.126Z,8.48
2018-12-06T16:22:37.537Z,12.98
2018-12-06T16:25:06.204Z,10.63
2018-12-06T16:27:34.595Z,10.05
2018-12-06T16:32:36.413Z,6.87
2018-12-06T16:35:05.348Z,9.23
2018-12-06T16:37:33.842Z,10.20
2018-12-06T16:40:03.032Z,9.70
2018-12-06T16:42:36.431Z,12.10
2018-12-06T16:45:05.622Z,9.33
2018-12-06T16:47:34.162Z,12.30
2018-12-06T16:50:02.863Z,12.55
2018-12-06T16:52:31.252Z,9.35
2018-12-06T16:55:04.537Z,10.73
2018-12-06T16:57:32.929Z,10.98
2018-12-06T17:00:01.333Z,9.65
2018-12-06T17:02:29.734Z,11.70
2018-12-06T17:04:58.143Z,14.10
2018-12-06T17:07:26.507Z,9.70
2018-12-06T17:09:54.855Z,9.23
2018-12-06T17:12:23.366Z,11.57
2018-12-06T17:14:51.854Z,13.03
2018-12-06T17:17:20.417Z,7.83
2018-12-06T17:19:48.853Z,12.87
2018-12-06T17:22:17.310Z,9.97
2018-12-06T17:24:45.629Z,10.67
2018-12-06T17:27:14.084Z,8.60
2018-12-06T17:29:42.685Z,16.37
2018-12-06T17:32:11.266Z,10.15
2018-12-06T17:34:39.616Z,11.30
2018-12-06T17:37:08.072Z,7.35
2018-12-06T17:39:36.416Z,12.00
2018-12-06T17:42:04.980Z,11.65
2018-12-06T17:44:33.610Z,9.93
2018-12-06T17:47:02.060Z,8.20
2018-12-06T17:49:30.486Z,11.20
2018-12-06T17:51:59.127Z,6.93
2018-12-06T17:54:27.631Z,10.87
2018-12-06T17:56:56.153Z,8.87
2018-12-06T17:59:24.582Z,9.35
2018-12-06T18:01:53.229Z,9.27
2018-12-06T18:04:21.751Z,12.10
2018-12-06T18:06:50.445Z,11.60
2018-12-06T18:09:19.834Z,10.90
2018-12-06T18:11:47.149Z,8.30
2018-12-06T18:14:15.781Z,9.10
2018-12-06T18:16:43.218Z,8.40
2018-12-06T18:19:11.798Z,8.30
2018-12-06T18:21:40.239Z,10.27
2018-12-06T18:24:08.663Z,9.07
2018-12-06T18:26:37.229Z,9.60
2018-12-06T18:29:05.647Z,10.13
2018-12-06T18:31:34.141Z,9.83
2018-12-06T18:34:02.802Z,9.40
2018-12-06T18:36:31.234Z,11.17
2018-12-06T18:38:59.697Z,8.37
2018-12-06T18:41:28.127Z,16.73
2018-12-06T18:43:56.936Z,9.15
2018-12-06T18:46:25.443Z,8.45
2018-12-06T18:48:53.865Z,10.87
2018-12-06T18:51:22.278Z,11.70
2018-12-06T18:53:51.090Z,8.23
2018-12-06T18:56:19.878Z,11.80
2018-12-06T18:58:48.441Z,7.87
2018-12-06T19:01:17.022Z,9.30
2018-12-06T19:03:45.506Z,9.53
2018-12-06T19:06:14.086Z,11.87
2018-12-06T19:08:42.457Z,12.15
2018-12-06T19:11:10.952Z,10.20
2018-12-06T19:13:39.556Z,9.03
2018-12-06T19:16:06.884Z,11.87
2018-12-06T19:18:35.405Z,11.43
2018-12-06T19:21:10.435Z,11.23
2018-12-06T19:23:37.825Z,14.20
2018-12-06T19:26:05.254Z,10.20
2018-12-06T19:28:33.557Z,10.53
2018-12-06T19:31:02.097Z,11.40
2018-12-06T19:33:30.596Z,12.28
2018-12-06T19:35:59.088Z,13.80
2018-12-06T19:38:27.498Z,10.30
2018-12-06T19:43:36.073Z,12.58
2018-12-06T19:46:03.728Z,13.90
2018-12-06T19:48:32.525Z,13.00
2018-12-06T19:51:00.005Z,16.32
2018-12-06T19:53:27.560Z,13.03
2018-12-06T19:55:55.067Z,14.55
2018-12-06T19:58:22.685Z,13.10
2018-12-06T20:00:50.629Z,13.70
2018-12-06T20:03:18.286Z,16.45
2018-12-06T20:05:51.500Z,14.87
2018-12-06T20:08:19.167Z,15.78
2018-12-06T20:10:46.637Z,12.13
2018-12-06T20:13:16.117Z,11.08
2018-12-06T20:15:43.527Z,13.30
2018-12-06T20:18:11.099Z,11.20
2018-12-06T20:20:38.931Z,15.53
2018-12-06T20:23:06.573Z,14.90
2018-12-06T20:25:34.222Z,12.55
2018-12-06T20:28:03.858Z,11.12
2018-12-06T20:30:31.389Z,13.93
2018-12-06T20:32:59.014Z,13.78
2018-12-06T20:35:27.478Z,12.28
2018-12-06T20:37:55.572Z,13.28
2018-12-06T20:40:24.050Z,12.43
2018-12-06T20:42:52.506Z,14.07
2018-12-06T20:45:22.182Z,14.63
2018-12-06T20:47:51.452Z,15.05
2018-12-06T20:50:20.191Z,17.17
2018-12-06T20:52:48.761Z,14.05
2018-12-06T20:55:17.520Z,13.88
2018-12-06T20:57:46.147Z,15.28
2018-12-06T21:00:14.946Z,13.65
2018-12-06T21:02:43.649Z,13.33
2018-12-06T21:05:12.222Z,12.90
2018-12-06T21:07:40.865Z,15.60
2018-12-06T21:10:09.561Z,13.25
2018-12-06T21:12:38.181Z,15.00
2018-12-06T21:15:07.346Z,16.67
2018-12-06T21:17:35.941Z,12.75
2018-12-06T21:20:05.814Z,14.65
2018-12-06T21:22:33.248Z,14.33
2018-12-06T21:25:01.978Z,17.37
2018-12-06T21:27:30.654Z,13.83
2018-12-06T21:29:59.217Z,15.27
2018-12-06T21:32:27.689Z,15.70
2018-12-06T21:34:56.073Z,14.47
2018-12-06T21:37:24.593Z,13.55
2018-12-06T21:39:53.393Z,15.38
2018-12-06T21:42:20.898Z,15.87
2018-12-06T21:44:49.740Z,14.50
2018-12-06T21:47:23.848Z,14.60
2018-12-06T21:49:53.205Z,19.17
2018-12-06T21:52:20.738Z,14.10
2018-12-06T21:54:49.718Z,15.03
2018-12-06T21:57:18.500Z,15.63
2018-12-06T21:59:46.005Z,14.73
2018-12-06T22:02:21.806Z,16.90
2018-12-06T22:04:50.626Z,15.43
2018-12-06T22:07:22.361Z,16.55
2018-12-06T22:09:50.835Z,20.57
2018-12-06T22:12:19.455Z,14.70
2018-12-06T22:14:48.147Z,15.77
2018-12-06T22:17:16.688Z,14.93
2018-12-06T22:19:45.253Z,17.37
2018-12-06T22:22:13.673Z,13.80
2018-12-06T22:24:42.118Z,15.80
2018-12-06T22:27:10.887Z,15.38
2018-12-06T22:29:39.377Z,13.83
2018-12-06T22:32:09.535Z,12.97
2018-12-06T22:34:37.132Z,16.90
2018-12-06T22:37:05.814Z,10.00
2018-12-06T22:39:34.426Z,9.93
2018-12-06T22:42:02.959Z,9.90
2018-12-06T22:44:31.626Z,9.30
2018-12-06T22:46:59.263Z,8.67
2018-12-06T22:49:27.826Z,7.42
2018-12-06T22:51:56.464Z,7.23
2018-12-06T22:54:25.117Z,10.03
2018-12-06T22:56:53.593Z,7.83
2018-12-06T22:59:20.925Z,9.17
2018-12-06T23:01:49.980Z,8.35
2018-12-06T23:04:18.709Z,7.85
2018-12-06T23:06:47.962Z,7.92
2018-12-06T23:09:16.689Z,10.63
2018-12-06T23:11:44.502Z,7.53
2018-12-06T23:14:12.907Z,6.70
2018-12-06T23:16:41.526Z,8.17
2018-12-06T23:19:09.912Z,7.77
2018-12-06T23:21:38.257Z,6.90
2018-12-06T23:24:06.772Z,6.65
2018-12-06T23:26:35.277Z,7.58
2018-12-06T23:29:03.777Z,9.50
2018-12-06T23:31:32.154Z,6.63
2018-12-06T23:34:00.546Z,9.03
2018-12-06T23:36:28.904Z,6.30
2018-12-06T23:38:57.292Z,6.60
2018-12-06T23:41:25.905Z,7.07
2018-12-06T23:43:54.167Z,7.70
2018-12-06T23:46:22.557Z,6.07
2018-12-06T23:48:51.094Z,7.13
2018-12-06T23:51:33.027Z,6.87
2018-12-06T23:54:01.391Z,6.40
2018-12-06T23:56:29.994Z,5.87
2018-12-06T23:58:58.726Z,6.35
